createdAt,value
2017-12-20T00:01:14.819Z,51.93
2017-12-20T00:03:43.242Z,48.87
2017-12-20T00:06:11.589Z,48.67
2017-12-20T00:08:39.945Z,51.43
2017-12-20T00:11:08.288Z,40.90
2017-12-20T00:13:36.645Z,48.80
2017-12-20T00:16:04.977Z,39.63
2017-12-20T00:18:33.324Z,46.70
2017-12-20T00:21:01.852Z,44.13
2017-12-20T00:23:30.209Z,42.50
2017-12-20T00:26:00.125Z,38.50
2017-12-20T00:28:29.251Z,40.23
2017-12-20T00:30:57.583Z,36.00
2017-12-20T00:33:26.696Z,37.90
2017-12-20T00:35:55.065Z,36.33
2017-12-20T00:38:24.154Z,36.30
2017-12-20T00:40:52.525Z,30.07
2017-12-20T00:43:21.363Z,45.97
2017-12-20T00:45:49.740Z,34.23
2017-12-20T00:48:18.131Z,31.13
2017-12-20T00:50:46.483Z,32.57
2017-12-20T00:53:14.941Z,34.97
2017-12-20T00:55:43.293Z,34.93
2017-12-20T00:58:11.754Z,31.57
2017-12-20T01:00:40.140Z,31.67
2017-12-20T01:03:08.486Z,33.53
2017-12-20T01:05:36.838Z,27.57
2017-12-20T01:08:05.264Z,30.80
2017-12-20T01:10:33.655Z,33.37
2017-12-20T01:13:02.032Z,30.77
2017-12-20T01:15:30.409Z,27.67
2017-12-20T01:17:58.745Z,27.93
2017-12-20T01:20:27.878Z,27.77
2017-12-20T01:22:56.256Z,26.53
2017-12-20T01:25:24.704Z,29.03
2017-12-20T01:27:53.047Z,30.37
2017-12-20T01:30:21.443Z,30.17
2017-12-20T01:32:49.877Z,35.33
2017-12-20T01:35:18.343Z,31.80
2017-12-20T01:37:46.724Z,27.33
2017-12-20T01:40:15.060Z,31.50
2017-12-20T01:42:43.432Z,26.47
2017-12-20T01:45:11.963Z,28.37
2017-12-20T01:47:40.363Z,26.47
2017-12-20T01:50:08.723Z,31.50
2017-12-20T01:52:37.123Z,28.30
2017-12-20T01:55:05.809Z,30.27
2017-12-20T01:57:34.146Z,31.00
2017-12-20T02:00:03.251Z,30.30
2017-12-20T02:02:32.385Z,28.77
2017-12-20T02:05:00.728Z,30.10
2017-12-20T02:07:29.125Z,32.00
2017-12-20T02:09:57.465Z,32.80
2017-12-20T02:12:26.575Z,34.27
2017-12-20T02:14:55.676Z,29.60
2017-12-20T02:17:24.088Z,31.93
2017-12-20T02:19:52.430Z,31.47
2017-12-20T02:22:22.267Z,31.63
2017-12-20T02:24:50.620Z,30.67
2017-12-20T02:27:19.733Z,34.30
2017-12-20T02:29:48.642Z,36.20
2017-12-20T02:32:16.993Z,31.97
2017-12-20T02:34:46.080Z,37.20
2017-12-20T02:37:14.516Z,36.13
2017-12-20T02:39:42.893Z,33.60
2017-12-20T02:42:14.926Z,38.77
2017-12-20T02:44:43.273Z,34.17
2017-12-20T02:47:11.700Z,34.40
2017-12-20T02:49:40.763Z,33.37
2017-12-20T02:52:09.865Z,37.20
2017-12-20T02:54:38.316Z,37.37
2017-12-20T02:57:06.680Z,41.67
2017-12-20T02:59:35.016Z,39.20
2017-12-20T03:02:03.355Z,37.67
2017-12-20T03:04:31.823Z,35.20
2017-12-20T03:07:00.148Z,33.90
2017-12-20T03:09:28.593Z,38.20
2017-12-20T03:11:56.884Z,30.33
2017-12-20T03:14:25.210Z,28.50
2017-12-20T03:16:53.556Z,32.97
2017-12-20T03:19:21.896Z,35.90
2017-12-20T03:21:50.253Z,30.90
2017-12-20T03:24:18.600Z,35.17
2017-12-20T03:26:47.109Z,31.17
2017-12-20T03:29:15.479Z,31.77
2017-12-20T03:31:43.816Z,34.90
2017-12-20T03:34:13.078Z,31.73
2017-12-20T03:36:41.395Z,32.40
2017-12-20T03:39:10.858Z,34.97
2017-12-20T03:41:39.196Z,28.63
2017-12-20T03:44:07.710Z,31.60
2017-12-20T03:46:36.086Z,31.10
2017-12-20T03:49:04.409Z,30.70
2017-12-20T03:51:32.822Z,27.80
2017-12-20T03:54:01.208Z,35.57
2017-12-20T03:56:29.544Z,27.07
2017-12-20T03:58:57.897Z,28.97
2017-12-20T04:01:26.349Z,26.33
2017-12-20T04:03:54.732Z,29.10
2017-12-20T04:06:23.103Z,29.13
2017-12-20T04:08:51.452Z,32.40
2017-12-20T04:11:19.785Z,29.50
2017-12-20T04:13:48.134Z,30.40
2017-12-20T04:16:16.530Z,28.17
2017-12-20T04:18:44.895Z,27.93
2017-12-20T04:21:13.239Z,22.63
2017-12-20T04:23:41.680Z,30.83
2017-12-20T04:26:10.081Z,30.23
2017-12-20T04:28:38.418Z,24.50
2017-12-20T04:31:06.776Z,29.93
2017-12-20T04:33:35.119Z,29.77
2017-12-20T04:36:03.451Z,25.90
2017-12-20T04:38:32.151Z,28.77
2017-12-20T04:41:00.514Z,33.27
2017-12-20T04:43:28.870Z,27.07
2017-12-20T04:45:57.969Z,33.87
2017-12-20T04:48:27.109Z,29.33
2017-12-20T04:50:55.447Z,27.30
2017-12-20T04:53:23.784Z,29.23
2017-12-20T04:55:52.125Z,26.13
2017-12-20T04:58:20.459Z,24.83
2017-12-20T05:00:49.540Z,25.33
2017-12-20T05:03:17.887Z,27.50
2017-12-20T05:05:46.247Z,27.80
2017-12-20T05:08:14.681Z,24.70
2017-12-20T05:10:43.128Z,25.30
2017-12-20T05:13:11.476Z,24.37
2017-12-20T05:15:39.811Z,23.90
2017-12-20T05:18:08.165Z,25.80
2017-12-20T05:20:36.524Z,24.23
2017-12-20T05:23:04.893Z,26.10
2017-12-20T05:25:34.012Z,24.17
2017-12-20T05:28:02.326Z,20.97
2017-12-20T05:30:30.776Z,21.73
2017-12-20T05:32:59.133Z,26.80
2017-12-20T05:35:27.479Z,21.47
2017-12-20T05:37:55.820Z,23.43
2017-12-20T05:40:24.511Z,23.80
2017-12-20T05:42:52.916Z,25.07
2017-12-20T05:45:21.245Z,21.47
2017-12-20T05:47:49.787Z,22.63
2017-12-20T05:50:18.132Z,21.07
2017-12-20T05:52:46.473Z,21.37
2017-12-20T05:55:14.819Z,23.40
2017-12-20T05:57:43.162Z,19.07
2017-12-20T06:00:11.508Z,18.07
2017-12-20T06:02:39.857Z,19.20
2017-12-20T06:05:08.241Z,23.90
2017-12-20T06:07:36.556Z,22.77
2017-12-20T06:10:04.958Z,23.37
2017-12-20T06:12:34.208Z,20.20
2017-12-20T06:15:03.390Z,21.00
2017-12-20T06:17:31.739Z,21.07
2017-12-20T06:20:00.209Z,19.20
2017-12-20T06:22:28.580Z,21.73
2017-12-20T06:24:56.914Z,22.13
2017-12-20T06:27:25.259Z,23.80
2017-12-20T06:29:53.698Z,20.37
2017-12-20T06:32:22.398Z,21.97
2017-12-20T06:34:50.773Z,22.50
2017-12-20T06:37:19.267Z,24.70
2017-12-20T06:39:47.639Z,22.27
2017-12-20T06:42:16.011Z,22.80
2017-12-20T06:44:44.417Z,20.90
2017-12-20T06:47:13.649Z,21.97
2017-12-20T06:49:41.992Z,23.83
2017-12-20T06:52:10.333Z,22.00
2017-12-20T06:54:39.475Z,20.80
2017-12-20T06:57:07.808Z,23.03
2017-12-20T06:59:36.920Z,19.97
2017-12-20T07:02:05.304Z,19.13
2017-12-20T07:04:33.693Z,17.83
2017-12-20T07:07:02.650Z,18.63
2017-12-20T07:09:31.747Z,18.93
2017-12-20T07:12:00.124Z,20.73
2017-12-20T07:14:29.233Z,21.90
2017-12-20T07:16:57.578Z,22.10
2017-12-20T07:19:25.924Z,22.33
2017-12-20T07:21:54.258Z,21.27
2017-12-20T07:24:23.372Z,23.10
2017-12-20T07:26:51.727Z,21.70
2017-12-20T07:29:20.081Z,19.30
2017-12-20T07:31:48.428Z,19.90
2017-12-20T07:34:16.766Z,20.13
2017-12-20T07:36:45.894Z,20.03
2017-12-20T07:39:14.270Z,18.33
2017-12-20T07:41:42.834Z,20.87
2017-12-20T07:44:11.149Z,22.97
2017-12-20T07:46:39.625Z,18.60
2017-12-20T07:49:07.969Z,20.10
2017-12-20T07:51:37.072Z,19.97
2017-12-20T07:54:05.429Z,20.03
2017-12-20T07:56:33.796Z,23.00
2017-12-20T07:59:02.153Z,24.63
2017-12-20T08:01:30.512Z,21.17
2017-12-20T08:03:58.896Z,21.03
2017-12-20T08:06:27.262Z,21.23
2017-12-20T08:08:55.608Z,20.10
2017-12-20T08:11:24.734Z,20.10
2017-12-20T08:13:53.153Z,19.30
2017-12-20T08:16:21.483Z,18.90
2017-12-20T08:18:49.829Z,17.80
2017-12-20T08:21:18.193Z,24.20
2017-12-20T08:23:46.673Z,23.03
2017-12-20T08:26:15.003Z,20.73
2017-12-20T08:28:43.427Z,18.73
2017-12-20T08:31:11.755Z,17.37
2017-12-20T08:33:40.103Z,16.90
2017-12-20T08:36:08.435Z,17.60
2017-12-20T08:38:36.789Z,14.90
2017-12-20T08:41:05.141Z,20.90
2017-12-20T08:43:33.479Z,17.03
2017-12-20T08:46:01.872Z,14.30
2017-12-20T08:48:30.204Z,17.80
2017-12-20T08:50:58.627Z,15.43
2017-12-20T08:53:27.014Z,15.97
2017-12-20T08:55:55.468Z,19.03
2017-12-20T08:58:23.845Z,16.10
2017-12-20T09:00:52.183Z,17.23
2017-12-20T09:03:20.608Z,17.77
2017-12-20T09:05:48.964Z,13.50
2017-12-20T09:08:17.398Z,19.73
2017-12-20T09:10:45.782Z,13.63
2017-12-20T09:13:14.428Z,17.90
2017-12-20T09:15:42.800Z,14.20
2017-12-20T09:18:11.132Z,14.90
2017-12-20T09:20:39.502Z,18.63
2017-12-20T09:23:07.846Z,15.90
2017-12-20T09:25:36.214Z,15.73
2017-12-20T09:28:04.538Z,14.23
2017-12-20T09:30:32.906Z,17.93
2017-12-20T09:33:01.317Z,18.70
2017-12-20T09:35:29.648Z,18.83
2017-12-20T09:37:58.028Z,17.27
2017-12-20T09:40:26.369Z,17.33
2017-12-20T09:42:55.500Z,17.13
2017-12-20T09:45:23.860Z,14.07
2017-12-20T09:47:52.408Z,15.50
2017-12-20T09:50:20.844Z,14.17
2017-12-20T09:52:49.208Z,19.37
2017-12-20T09:55:17.583Z,19.80
2017-12-20T09:57:46.032Z,15.30
2017-12-20T10:00:14.375Z,16.40
2017-12-20T10:02:42.733Z,15.63
2017-12-20T10:05:11.439Z,16.23
2017-12-20T10:07:39.780Z,14.90
2017-12-20T10:10:08.350Z,18.13
2017-12-20T10:12:36.714Z,16.27
2017-12-20T10:15:05.088Z,16.87
2017-12-20T10:17:33.445Z,16.47
2017-12-20T10:20:01.808Z,18.37
2017-12-20T10:22:30.768Z,16.80
2017-12-20T10:24:59.118Z,18.20
2017-12-20T10:27:27.456Z,15.63
2017-12-20T10:29:55.813Z,12.87
2017-12-20T10:32:24.138Z,11.13
2017-12-20T10:34:52.743Z,11.83
2017-12-20T10:37:21.174Z,11.87
2017-12-20T10:39:49.541Z,13.13
2017-12-20T10:42:17.882Z,11.30
2017-12-20T10:44:46.384Z,11.07
2017-12-20T10:47:15.686Z,11.37
2017-12-20T10:49:44.783Z,12.73
2017-12-20T10:52:13.135Z,9.87
2017-12-20T10:54:41.696Z,9.77
2017-12-20T10:57:10.036Z,7.27
2017-12-20T10:59:38.379Z,9.40
2017-12-20T11:02:06.702Z,9.80
2017-12-20T11:04:35.057Z,8.43
2017-12-20T11:07:04.177Z,8.77
2017-12-20T11:09:32.529Z,8.20
2017-12-20T11:12:01.640Z,8.47
2017-12-20T11:14:30.032Z,7.97
2017-12-20T11:16:58.416Z,8.97
2017-12-20T11:19:27.484Z,8.83
2017-12-20T11:21:55.825Z,8.40
2017-12-20T11:24:24.174Z,8.73
2017-12-20T11:26:52.702Z,6.67
2017-12-20T11:29:21.046Z,8.03
2017-12-20T11:31:49.520Z,8.97
2017-12-20T11:34:17.889Z,8.63
2017-12-20T11:36:46.772Z,8.50
2017-12-20T11:39:15.962Z,7.73
2017-12-20T11:41:44.470Z,8.63
2017-12-20T11:44:12.845Z,6.67
2017-12-20T11:46:41.181Z,6.73
2017-12-20T11:49:09.536Z,10.23
2017-12-20T11:51:37.872Z,6.53
2017-12-20T11:54:06.238Z,7.17
2017-12-20T11:56:34.609Z,6.53
2017-12-20T11:59:02.979Z,6.17
2017-12-20T12:01:32.168Z,7.07
2017-12-20T12:04:00.544Z,8.07
2017-12-20T12:06:28.934Z,8.50
2017-12-20T12:08:58.053Z,6.73
2017-12-20T12:11:26.411Z,7.87
2017-12-20T12:13:55.557Z,7.33
2017-12-20T12:16:23.967Z,5.40
2017-12-20T12:18:52.312Z,8.57
2017-12-20T12:21:20.658Z,7.03
2017-12-20T12:23:49.233Z,5.20
2017-12-20T12:26:18.352Z,7.13
2017-12-20T12:28:46.693Z,6.27
2017-12-20T12:31:15.822Z,5.03
2017-12-20T12:33:44.165Z,6.13
2017-12-20T12:36:12.606Z,9.47
2017-12-20T12:38:40.949Z,10.53
2017-12-20T12:41:09.294Z,6.77
2017-12-20T12:43:37.637Z,7.80
2017-12-20T12:46:06.004Z,7.90
2017-12-20T12:48:34.388Z,7.27
2017-12-20T12:51:02.755Z,6.93
2017-12-20T12:53:31.091Z,9.00
2017-12-20T12:55:59.438Z,7.03
2017-12-20T12:58:27.867Z,9.60
2017-12-20T13:00:56.233Z,8.57
2017-12-20T13:03:24.618Z,7.70
2017-12-20T13:05:53.006Z,7.87
2017-12-20T13:08:21.313Z,7.70
2017-12-20T13:10:50.686Z,9.50
2017-12-20T13:13:19.788Z,10.20
2017-12-20T13:15:48.937Z,10.03
2017-12-20T13:18:17.274Z,10.77
2017-12-20T13:20:45.633Z,8.07
2017-12-20T13:23:14.733Z,8.20
2017-12-20T13:25:44.171Z,9.03
2017-12-20T13:28:12.514Z,7.77
2017-12-20T13:30:41.604Z,9.17
2017-12-20T13:33:09.987Z,9.87
2017-12-20T13:35:38.425Z,11.17
2017-12-20T13:38:06.859Z,12.57
2017-12-20T13:40:35.968Z,9.37
2017-12-20T13:43:04.327Z,10.50
2017-12-20T13:45:33.419Z,12.37
2017-12-20T13:48:02.549Z,8.77
2017-12-20T13:50:30.879Z,12.77
2017-12-20T13:52:59.222Z,11.23
2017-12-20T13:55:27.620Z,15.77
2017-12-20T13:57:57.381Z,11.27
2017-12-20T14:00:26.512Z,13.73
2017-12-20T14:02:54.855Z,12.73
2017-12-20T14:05:23.218Z,16.63
2017-12-20T14:07:52.331Z,11.07
2017-12-20T14:10:20.730Z,12.60
2017-12-20T14:12:49.112Z,12.57
2017-12-20T14:15:17.457Z,13.10
2017-12-20T14:17:46.605Z,12.17
2017-12-20T14:20:15.120Z,11.27
2017-12-20T14:22:43.609Z,15.03
2017-12-20T14:25:12.728Z,16.57
2017-12-20T14:27:41.051Z,15.73
2017-12-20T14:30:09.407Z,13.17
2017-12-20T14:32:37.760Z,16.93
2017-12-20T14:35:06.116Z,17.50
2017-12-20T14:37:35.254Z,13.70
2017-12-20T14:40:03.605Z,18.27
2017-12-20T14:42:31.954Z,15.50
2017-12-20T14:45:00.290Z,15.87
2017-12-20T14:47:28.649Z,13.53
2017-12-20T14:49:56.995Z,18.07
2017-12-20T14:52:25.414Z,14.83
2017-12-20T14:54:53.890Z,15.60
2017-12-20T14:57:22.288Z,17.90
2017-12-20T14:59:50.661Z,14.97
2017-12-20T15:02:18.992Z,16.77
2017-12-20T15:04:47.424Z,19.83
2017-12-20T15:07:15.969Z,18.87
2017-12-20T15:09:44.628Z,20.30
2017-12-20T15:12:12.984Z,22.73
2017-12-20T15:14:41.319Z,16.37
2017-12-20T15:17:10.531Z,22.17
2017-12-20T15:19:38.893Z,20.83
2017-12-20T15:22:08.033Z,17.70
2017-12-20T15:24:36.623Z,16.33
2017-12-20T15:27:04.975Z,15.77
2017-12-20T15:29:33.357Z,19.40
2017-12-20T15:32:02.448Z,18.13
2017-12-20T15:34:30.811Z,18.17
2017-12-20T15:36:59.975Z,19.13
2017-12-20T15:39:28.328Z,21.43
2017-12-20T15:41:56.701Z,20.07
2017-12-20T15:44:25.131Z,23.00
2017-12-20T15:46:53.425Z,21.33
2017-12-20T15:49:21.944Z,21.60
2017-12-20T15:51:50.327Z,18.63
2017-12-20T15:54:18.670Z,22.03
2017-12-20T15:56:47.780Z,20.37
2017-12-20T15:59:16.135Z,21.17
2017-12-20T16:01:44.503Z,23.50
2017-12-20T16:04:12.858Z,21.53
2017-12-20T16:06:41.207Z,19.67
2017-12-20T16:09:09.553Z,18.33
2017-12-20T16:11:38.777Z,18.87
2017-12-20T16:14:07.155Z,20.37
2017-12-20T16:16:35.503Z,18.57
2017-12-20T16:19:04.885Z,18.40
2017-12-20T16:21:33.351Z,20.67
2017-12-20T16:24:01.707Z,21.27
2017-12-20T16:26:30.165Z,17.20
2017-12-20T16:28:58.599Z,17.83
2017-12-20T16:31:27.116Z,17.83
2017-12-20T16:33:55.465Z,17.73
2017-12-20T16:36:23.876Z,18.33
2017-12-20T16:38:52.972Z,15.93
2017-12-20T16:41:22.115Z,17.33
2017-12-20T16:43:50.473Z,15.83
2017-12-20T16:46:18.834Z,20.37
2017-12-20T16:48:47.944Z,16.43
2017-12-20T16:51:16.331Z,18.83
2017-12-20T16:53:44.792Z,20.40
2017-12-20T16:56:13.145Z,21.37
2017-12-20T16:58:41.571Z,20.57
2017-12-20T17:01:09.913Z,19.37
2017-12-20T17:03:39.052Z,16.40
2017-12-20T17:06:07.399Z,18.80
2017-12-20T17:08:36.504Z,23.13
2017-12-20T17:11:05.221Z,18.03
2017-12-20T17:13:33.605Z,17.30
2017-12-20T17:16:01.951Z,20.37
2017-12-20T17:18:30.306Z,17.20
2017-12-20T17:20:58.731Z,19.17
2017-12-20T17:23:27.076Z,19.07
2017-12-20T17:25:55.439Z,18.10
2017-12-20T17:28:24.180Z,19.03
2017-12-20T17:30:52.532Z,18.90
2017-12-20T17:33:21.001Z,21.80
2017-12-20T17:35:49.439Z,16.90
2017-12-20T17:38:17.774Z,20.90
2017-12-20T17:40:46.124Z,17.47
2017-12-20T17:43:14.474Z,18.07
2017-12-20T17:45:43.149Z,17.43
2017-12-20T17:48:11.519Z,21.97
2017-12-20T17:50:39.878Z,16.53
2017-12-20T17:53:08.228Z,18.63
2017-12-20T17:55:36.574Z,20.77
2017-12-20T17:58:04.971Z,19.50
2017-12-20T18:00:33.430Z,16.93
2017-12-20T18:03:01.906Z,14.67
2017-12-20T18:05:30.353Z,17.37
2017-12-20T18:07:59.465Z,17.43
2017-12-20T18:10:27.820Z,18.30
2017-12-20T18:12:56.937Z,21.77
2017-12-20T18:15:25.285Z,16.40
2017-12-20T18:17:54.433Z,20.27
2017-12-20T18:20:22.809Z,22.43
2017-12-20T18:22:51.143Z,19.20
2017-12-20T18:25:20.256Z,18.07
2017-12-20T18:27:48.609Z,17.00
2017-12-20T18:30:16.952Z,18.00
2017-12-20T18:32:45.308Z,20.60
2017-12-20T18:35:13.642Z,21.17
2017-12-20T18:37:42.006Z,15.00
2017-12-20T18:40:10.382Z,17.83
2017-12-20T18:42:39.288Z,16.50
2017-12-20T18:45:07.646Z,16.80
2017-12-20T18:47:36.084Z,20.63
2017-12-20T18:50:04.445Z,17.50
2017-12-20T18:52:33.640Z,15.27
2017-12-20T18:55:02.896Z,14.90
2017-12-20T18:57:31.263Z,16.43
2017-12-20T18:59:59.635Z,16.27
2017-12-20T19:02:28.870Z,15.70
2017-12-20T19:04:57.283Z,18.43
2017-12-20T19:07:26.870Z,16.57
2017-12-20T19:09:55.267Z,15.47
2017-12-20T19:12:24.137Z,18.80
2017-12-20T19:14:52.827Z,14.90
2017-12-20T19:17:21.272Z,16.87
2017-12-20T19:19:49.808Z,15.57
2017-12-20T19:22:18.909Z,16.23
2017-12-20T19:24:48.047Z,14.60
2017-12-20T19:27:16.401Z,14.00
2017-12-20T19:29:45.529Z,16.47
2017-12-20T19:32:14.414Z,16.73
2017-12-20T19:34:42.820Z,15.90
2017-12-20T19:37:11.166Z,13.20
2017-12-20T19:39:39.691Z,14.83
2017-12-20T19:42:08.051Z,14.53
2017-12-20T19:44:36.447Z,14.23
2017-12-20T19:47:05.622Z,13.87
2017-12-20T19:49:34.060Z,16.07
2017-12-20T19:52:03.278Z,14.43
2017-12-20T19:54:31.623Z,14.83
2017-12-20T19:57:00.741Z,15.83
2017-12-20T19:59:29.856Z,13.63
2017-12-20T20:01:58.236Z,15.43
2017-12-20T20:04:26.668Z,13.40
2017-12-20T20:06:55.009Z,15.80
2017-12-20T20:09:23.345Z,16.57
2017-12-20T20:11:51.766Z,13.57
2017-12-20T20:14:20.104Z,14.50
2017-12-20T20:16:49.645Z,11.57
2017-12-20T20:19:18.901Z,11.13
2017-12-20T20:21:48.514Z,13.33
2017-12-20T20:24:16.853Z,12.57
2017-12-20T20:26:45.206Z,11.30
2017-12-20T20:29:13.682Z,14.43
2017-12-20T20:31:42.024Z,12.30
2017-12-20T20:34:11.164Z,12.90
2017-12-20T20:36:39.489Z,13.07
2017-12-20T20:39:07.899Z,14.60
2017-12-20T20:41:36.280Z,18.33
2017-12-20T20:44:04.658Z,16.77
2017-12-20T20:46:33.087Z,19.87
2017-12-20T20:49:01.480Z,22.07
2017-12-20T20:51:29.863Z,21.97
2017-12-20T20:53:58.256Z,26.50
2017-12-20T20:56:26.802Z,27.90
2017-12-20T20:58:55.194Z,31.47
2017-12-20T21:01:23.641Z,31.33
2017-12-20T21:03:52.017Z,29.70
2017-12-20T21:06:20.592Z,30.97
2017-12-20T21:08:48.880Z,36.73
2017-12-20T21:11:17.241Z,39.27
2017-12-20T21:13:45.580Z,42.43
2017-12-20T21:16:13.968Z,40.77
2017-12-20T21:18:42.304Z,51.00
2017-12-20T21:21:10.654Z,49.83
2017-12-20T21:23:39.009Z,46.47
2017-12-20T21:26:07.350Z,51.00
2017-12-20T21:28:35.694Z,49.03
2017-12-20T21:31:04.029Z,45.87
2017-12-20T21:33:32.424Z,54.03
2017-12-20T21:36:01.523Z,44.77
2017-12-20T21:38:30.654Z,60.30
2017-12-20T21:40:59.036Z,51.77
2017-12-20T21:43:27.380Z,50.13
2017-12-20T21:45:56.490Z,57.43
2017-12-20T21:48:24.837Z,53.87
2017-12-20T21:50:53.189Z,60.17
2017-12-20T21:53:21.578Z,50.90
2017-12-20T21:55:49.902Z,58.07
2017-12-20T21:58:19.020Z,56.60
2017-12-20T22:00:47.366Z,50.87
2017-12-20T22:03:16.488Z,55.00
2017-12-20T22:05:44.826Z,55.37
2017-12-20T22:08:13.212Z,52.20
2017-12-20T22:10:42.323Z,53.30
2017-12-20T22:13:12.072Z,54.40
2017-12-20T22:15:40.411Z,41.67
2017-12-20T22:18:09.533Z,46.37
2017-12-20T22:20:37.869Z,48.47
2017-12-20T22:23:06.203Z,44.37
2017-12-20T22:25:34.568Z,45.53
2017-12-20T22:28:03.661Z,40.47
2017-12-20T22:30:32.012Z,40.60
2017-12-20T22:33:00.350Z,44.90
2017-12-20T22:35:28.738Z,41.47
2017-12-20T22:37:57.056Z,43.87
2017-12-20T22:40:26.165Z,43.63
2017-12-20T22:42:54.612Z,46.13
2017-12-20T22:45:23.076Z,40.83
2017-12-20T22:47:51.461Z,44.43
2017-12-20T22:50:19.800Z,41.03
2017-12-20T22:52:48.136Z,38.47
2017-12-20T22:55:16.635Z,40.20
2017-12-20T22:57:45.721Z,36.57
2017-12-20T23:00:14.862Z,35.30
2017-12-20T23:02:43.195Z,36.07
2017-12-20T23:05:12.302Z,34.47
2017-12-20T23:07:40.761Z,41.17
2017-12-20T23:10:09.868Z,38.60
2017-12-20T23:12:39.004Z,40.50
2017-12-20T23:15:07.375Z,40.97
2017-12-20T23:17:35.730Z,38.03
2017-12-20T23:20:04.843Z,39.47
2017-12-20T23:22:33.181Z,35.93
2017-12-20T23:25:01.526Z,33.27
2017-12-20T23:27:29.872Z,38.47
2017-12-20T23:29:58.215Z,37.93
2017-12-20T23:32:26.569Z,39.33
2017-12-20T23:34:55.019Z,37.90
2017-12-20T23:37:23.412Z,37.20
2017-12-20T23:39:51.744Z,37.73
2017-12-20T23:42:20.871Z,38.60
2017-12-20T23:44:49.214Z,38.63
2017-12-20T23:47:17.577Z,36.03
2017-12-20T23:49:46.013Z,34.50
2017-12-20T23:52:14.403Z,40.20
2017-12-20T23:54:42.731Z,35.10
2017-12-20T23:57:11.075Z,36.87
2017-12-20T23:59:39.432Z,35.37
